createdAt,value
2023-03-07T00:00:35.648Z,3.54
2023-03-07T00:03:08.097Z,3.58
2023-03-07T00:05:40.560Z,3.53
2023-03-07T00:08:12.800Z,3.55
2023-03-07T00:10:44.807Z,3.44
2023-03-07T00:13:16.760Z,3.45
2023-03-07T00:15:48.795Z,3.48
2023-03-07T00:18:21.024Z,3.46
2023-03-07T00:21:06.374Z,3.50
2023-03-07T00:23:44.667Z,3.42
2023-03-07T00:26:23.119Z,3.29
2023-03-07T00:28:56.034Z,3.26
2023-03-07T00:31:28.705Z,3.28
2023-03-07T00:34:00.726Z,3.32
2023-03-07T00:36:32.701Z,3.29
2023-03-07T00:39:04.975Z,3.29
2023-03-07T00:41:37.426Z,3.19
2023-03-07T00:44:09.930Z,3.21
2023-03-07T00:46:41.942Z,3.23
2023-03-07T00:49:13.932Z,3.32
2023-03-07T00:51:46.087Z,3.39
2023-03-07T00:54:18.330Z,3.39
2023-03-07T00:56:50.434Z,3.42
2023-03-07T00:59:23.031Z,3.47
2023-03-07T01:01:55.030Z,3.38
2023-03-07T01:04:27.079Z,3.22
2023-03-07T01:06:59.050Z,3.23
2023-03-07T01:09:31.005Z,3.30
2023-03-07T01:12:07.269Z,3.35
2023-03-07T01:14:39.237Z,3.40
2023-03-07T01:17:11.183Z,3.41
2023-03-07T01:19:43.120Z,3.29
2023-03-07T01:22:15.095Z,3.28
2023-03-07T01:24:47.009Z,3.29
2023-03-07T01:27:19.007Z,3.33
2023-03-07T01:29:51.103Z,3.37
2023-03-07T01:32:23.234Z,3.50
2023-03-07T01:34:55.263Z,3.31
2023-03-07T01:37:27.277Z,3.23
2023-03-07T01:39:59.214Z,3.32
2023-03-07T01:42:32.257Z,3.21
2023-03-07T01:45:28.922Z,3.21
2023-03-07T01:48:01.008Z,3.30
2023-03-07T01:50:35.943Z,3.40
2023-03-07T01:53:09.210Z,3.33
2023-03-07T01:55:41.195Z,3.29
2023-03-07T01:58:15.418Z,3.34
2023-03-07T02:00:47.451Z,3.32
2023-03-07T02:03:40.080Z,3.45
2023-03-07T02:06:14.674Z,3.51
2023-03-07T02:08:49.557Z,3.55
2023-03-07T02:11:22.002Z,3.52
2023-03-07T02:14:01.059Z,3.55
2023-03-07T02:16:33.032Z,3.60
2023-03-07T02:19:27.326Z,3.68
2023-03-07T02:22:14.915Z,3.66
2023-03-07T02:25:11.122Z,3.67
2023-03-07T02:27:44.198Z,3.71
2023-03-07T02:30:17.025Z,3.64
2023-03-07T02:32:49.101Z,3.70
2023-03-07T02:35:24.934Z,3.80
2023-03-07T02:38:01.648Z,3.86
2023-03-07T02:40:33.903Z,3.91
2023-03-07T02:43:09.632Z,3.85
2023-03-07T02:45:41.668Z,3.78
2023-03-07T02:48:13.679Z,3.92
2023-03-07T02:50:45.692Z,3.81
2023-03-07T02:53:17.616Z,3.82
2023-03-07T02:55:49.670Z,3.92
2023-03-07T02:58:22.059Z,3.92
2023-03-07T03:00:54.007Z,3.87
2023-03-07T03:03:26.153Z,3.92
2023-03-07T03:05:58.277Z,3.88
2023-03-07T03:08:30.710Z,3.85
2023-03-07T03:11:02.720Z,3.86
2023-03-07T03:13:34.782Z,3.80
2023-03-07T03:16:07.558Z,3.91
2023-03-07T03:18:39.597Z,3.85
2023-03-07T03:21:12.368Z,3.78
2023-03-07T03:23:44.378Z,3.83
2023-03-07T03:26:16.864Z,3.90
2023-03-07T03:28:49.047Z,3.86
2023-03-07T03:31:21.099Z,3.83
2023-03-07T03:33:53.426Z,3.91
2023-03-07T03:36:27.473Z,3.80
2023-03-07T03:39:00.436Z,3.81
2023-03-07T03:41:32.514Z,3.84
2023-03-07T03:44:04.804Z,3.66
2023-03-07T03:46:37.538Z,3.80
2023-03-07T03:49:13.680Z,3.91
2023-03-07T03:51:45.665Z,3.90
2023-03-07T03:54:17.842Z,3.74
2023-03-07T03:56:49.798Z,3.74
2023-03-07T03:59:22.459Z,3.77
2023-03-07T04:01:55.463Z,3.73
2023-03-07T04:04:27.453Z,3.68
2023-03-07T04:06:59.418Z,3.64
2023-03-07T04:09:32.127Z,3.65
2023-03-07T04:12:04.252Z,3.71
2023-03-07T04:14:36.196Z,3.67
2023-03-07T04:17:08.163Z,3.64
2023-03-07T04:19:40.106Z,3.63
2023-03-07T04:22:12.063Z,3.65
2023-03-07T04:24:45.455Z,3.63
2023-03-07T04:27:17.908Z,3.64
2023-03-07T04:29:49.916Z,3.58
2023-03-07T04:32:21.930Z,3.55
2023-03-07T04:34:53.990Z,3.64
2023-03-07T04:37:25.960Z,3.52
2023-03-07T04:39:58.252Z,3.63
2023-03-07T04:42:30.245Z,3.56
2023-03-07T04:45:04.658Z,3.71
2023-03-07T04:47:37.022Z,3.70
2023-03-07T04:50:10.513Z,3.69
2023-03-07T04:52:42.689Z,3.53
2023-03-07T04:55:15.084Z,3.57
2023-03-07T04:57:47.715Z,3.54
2023-03-07T05:00:20.536Z,3.62
2023-03-07T05:02:52.513Z,3.59
2023-03-07T05:05:24.539Z,3.68
2023-03-07T05:07:56.551Z,3.67
2023-03-07T05:10:29.373Z,3.77
2023-03-07T05:13:01.865Z,3.80
2023-03-07T05:15:38.987Z,3.79
2023-03-07T05:18:11.040Z,3.79
2023-03-07T05:20:43.344Z,3.81
2023-03-07T05:23:15.565Z,3.85
2023-03-07T05:25:47.590Z,3.80
2023-03-07T05:28:19.789Z,3.72
2023-03-07T05:30:52.780Z,3.74
2023-03-07T05:33:25.576Z,3.67
2023-03-07T05:36:01.323Z,3.68
2023-03-07T05:38:33.348Z,3.70
2023-03-07T05:41:05.499Z,3.69
2023-03-07T05:43:37.436Z,3.66
2023-03-07T05:46:09.432Z,3.54
2023-03-07T05:48:42.117Z,3.59
2023-03-07T05:51:14.121Z,3.70
2023-03-07T05:53:48.356Z,3.70
2023-03-07T05:56:20.316Z,3.72
2023-03-07T05:58:52.531Z,3.67
2023-03-07T06:01:24.455Z,3.61
2023-03-07T06:03:57.101Z,3.53
2023-03-07T06:06:29.202Z,3.54
2023-03-07T06:09:01.323Z,3.60
2023-03-07T06:11:33.982Z,3.61
2023-03-07T06:14:05.983Z,3.57
2023-03-07T06:16:38.038Z,3.45
2023-03-07T06:19:10.007Z,3.42
2023-03-07T06:21:44.013Z,3.47
2023-03-07T06:24:15.982Z,3.58
2023-03-07T06:26:48.070Z,3.59
2023-03-07T06:29:20.058Z,3.66
2023-03-07T06:31:52.013Z,3.76
2023-03-07T06:34:25.259Z,3.72
2023-03-07T06:36:57.300Z,3.59
2023-03-07T06:39:31.314Z,3.69
2023-03-07T06:42:03.500Z,3.68
2023-03-07T06:44:35.910Z,3.81
2023-03-07T06:47:07.927Z,3.84
2023-03-07T06:49:39.867Z,3.93
2023-03-07T06:52:11.961Z,4.00
2023-03-07T06:54:43.987Z,3.99
2023-03-07T06:57:16.147Z,3.94
2023-03-07T06:59:48.125Z,4.07
2023-03-07T07:02:20.201Z,4.18
2023-03-07T07:04:52.388Z,4.27
2023-03-07T07:07:25.510Z,4.23
2023-03-07T07:09:57.704Z,4.28
2023-03-07T07:12:29.713Z,4.38
2023-03-07T07:15:05.815Z,4.38
2023-03-07T07:17:41.180Z,4.39
2023-03-07T07:20:13.788Z,4.50
2023-03-07T07:22:46.434Z,4.46
2023-03-07T07:25:18.596Z,4.56
2023-03-07T07:27:52.511Z,4.63
2023-03-07T07:30:25.237Z,4.71
2023-03-07T07:32:57.291Z,4.75
2023-03-07T07:35:29.523Z,4.75
2023-03-07T07:38:01.536Z,4.93
2023-03-07T07:40:33.579Z,5.03
2023-03-07T07:43:06.175Z,5.07
2023-03-07T07:45:38.216Z,4.86
2023-03-07T07:48:10.369Z,4.83
2023-03-07T07:50:42.393Z,4.75
2023-03-07T07:53:17.078Z,4.82
2023-03-07T07:55:49.132Z,4.95
2023-03-07T07:58:21.312Z,4.97
2023-03-07T08:00:53.525Z,4.98
2023-03-07T08:03:25.589Z,4.87
2023-03-07T08:05:57.604Z,4.83
2023-03-07T08:08:29.553Z,4.69
2023-03-07T08:11:01.578Z,4.89
2023-03-07T08:13:33.526Z,4.98
2023-03-07T08:16:18.823Z,4.95
2023-03-07T08:18:57.179Z,5.10
2023-03-07T08:21:29.219Z,5.09
2023-03-07T08:24:01.423Z,5.11
2023-03-07T08:26:33.503Z,5.36
2023-03-07T08:29:05.450Z,5.21
2023-03-07T08:31:37.406Z,5.37
2023-03-07T08:34:09.353Z,5.40
2023-03-07T08:36:41.297Z,5.56
2023-03-07T08:39:24.692Z,5.53
2023-03-07T08:41:57.050Z,5.39
2023-03-07T08:44:29.088Z,5.51
2023-03-07T08:47:01.193Z,5.53
2023-03-07T08:49:33.320Z,5.48
2023-03-07T08:52:05.582Z,5.50
2023-03-07T08:54:37.562Z,5.54
2023-03-07T08:57:09.695Z,5.68
2023-03-07T08:59:42.179Z,5.66
2023-03-07T09:02:14.208Z,5.64
2023-03-07T09:04:46.241Z,5.80
2023-03-07T09:07:19.553Z,5.63
2023-03-07T09:09:51.531Z,5.84
2023-03-07T09:12:23.572Z,5.89
2023-03-07T09:14:55.613Z,5.74
2023-03-07T09:17:27.600Z,5.73
2023-03-07T09:19:59.680Z,5.90
2023-03-07T09:22:32.219Z,6.04
2023-03-07T09:25:06.577Z,5.98
2023-03-07T09:27:40.898Z,6.14
2023-03-07T09:30:15.726Z,6.23
2023-03-07T09:32:47.669Z,6.41
2023-03-07T09:35:19.590Z,6.35
2023-03-07T09:37:51.574Z,6.43
2023-03-07T09:40:26.716Z,6.55
2023-03-07T09:43:32.631Z,6.39
2023-03-07T09:46:54.948Z,6.30
2023-03-07T09:49:46.546Z,6.13
2023-03-07T09:52:29.432Z,6.36
2023-03-07T09:55:12.038Z,6.59
2023-03-07T09:57:58.715Z,6.80
2023-03-07T10:00:41.733Z,6.84
2023-03-07T10:03:42.008Z,6.98
2023-03-07T10:06:25.214Z,7.01
2023-03-07T10:08:59.228Z,7.05
2023-03-07T10:11:48.141Z,6.78
2023-03-07T10:14:45.255Z,6.83
2023-03-07T10:17:39.828Z,6.74
2023-03-07T10:20:38.296Z,6.84
2023-03-07T10:23:32.167Z,7.02
2023-03-07T10:26:12.977Z,6.88
2023-03-07T10:28:46.596Z,6.87
2023-03-07T10:31:39.494Z,6.73
2023-03-07T10:34:32.663Z,6.54
2023-03-07T10:37:22.285Z,6.37
2023-03-07T10:39:57.150Z,6.39
2023-03-07T10:42:35.698Z,6.26
2023-03-07T10:45:12.930Z,5.50
2023-03-07T10:47:44.956Z,5.01
2023-03-07T10:50:57.590Z,5.05
2023-03-07T10:53:34.351Z,5.08
2023-03-07T10:56:18.858Z,5.05
2023-03-07T10:59:09.560Z,5.22
2023-03-07T11:01:59.642Z,5.34
2023-03-07T11:04:45.849Z,5.69
2023-03-07T11:07:36.556Z,6.15
2023-03-07T11:10:39.631Z,6.62
2023-03-07T11:13:20.842Z,7.00
2023-03-07T11:16:11.611Z,7.24
2023-03-07T11:18:45.715Z,7.52
2023-03-07T11:21:30.398Z,7.58
2023-03-07T11:24:30.021Z,8.05
2023-03-07T11:27:06.640Z,8.24
2023-03-07T11:29:38.668Z,8.44
2023-03-07T11:32:22.459Z,8.42
2023-03-07T11:35:04.351Z,8.45
2023-03-07T11:38:16.675Z,8.68
2023-03-07T11:41:11.331Z,8.05
2023-03-07T11:44:29.944Z,7.76
2023-03-07T11:47:23.084Z,7.72
2023-03-07T11:50:23.714Z,7.85
2023-03-07T11:53:23.677Z,7.88
2023-03-07T11:56:15.275Z,7.89
2023-03-07T11:59:30.547Z,8.11
2023-03-07T12:02:20.431Z,7.89
2023-03-07T12:05:37.698Z,7.85
2023-03-07T12:08:54.648Z,7.99
2023-03-07T12:11:51.769Z,7.86
2023-03-07T12:14:35.930Z,7.81
2023-03-07T12:17:07.951Z,7.95
2023-03-07T12:20:15.104Z,8.11
2023-03-07T12:23:11.790Z,7.92
2023-03-07T12:25:50.656Z,8.33
2023-03-07T12:28:35.807Z,8.83
2023-03-07T12:31:40.774Z,9.06
2023-03-07T12:34:28.641Z,9.01
2023-03-07T12:37:14.940Z,9.12
2023-03-07T12:40:04.610Z,9.30
2023-03-07T12:43:13.788Z,8.66
2023-03-07T12:45:58.555Z,8.70
2023-03-07T12:48:41.073Z,8.69
2023-03-07T12:51:37.279Z,8.84
2023-03-07T12:54:14.749Z,9.18
2023-03-07T12:57:44.707Z,8.91
2023-03-07T13:00:20.890Z,8.83
2023-03-07T13:03:06.755Z,8.49
2023-03-07T13:05:39.493Z,8.25
2023-03-07T13:08:22.357Z,8.06
2023-03-07T13:10:54.796Z,7.90
2023-03-07T13:13:47.224Z,7.99
2023-03-07T13:16:39.500Z,7.97
2023-03-07T13:19:36.576Z,8.06
2023-03-07T13:22:15.449Z,8.10
2023-03-07T13:24:49.774Z,8.27
2023-03-07T13:27:46.768Z,8.39
2023-03-07T13:30:31.337Z,8.52
2023-03-07T13:33:38.928Z,8.46
2023-03-07T13:36:38.122Z,8.39
2023-03-07T13:39:42.661Z,8.59
2023-03-07T13:42:49.269Z,8.90
2023-03-07T13:45:39.844Z,9.04
2023-03-07T13:48:37.974Z,9.07
2023-03-07T13:51:11.265Z,9.01
2023-03-07T13:53:48.023Z,9.09
2023-03-07T13:56:35.820Z,8.84
2023-03-07T13:59:13.710Z,8.75
2023-03-07T14:01:52.909Z,8.64
2023-03-07T14:04:41.065Z,8.69
2023-03-07T14:07:26.806Z,8.53
2023-03-07T14:10:22.246Z,8.38
2023-03-07T14:13:39.816Z,8.31
2023-03-07T14:16:47.369Z,8.29
2023-03-07T14:19:48.258Z,8.24
2023-03-07T14:22:35.828Z,8.23
2023-03-07T14:25:18.331Z,8.13
2023-03-07T14:28:23.335Z,8.18
2023-03-07T14:31:05.701Z,8.19
2023-03-07T14:33:39.764Z,8.38
2023-03-07T14:36:25.812Z,8.53
2023-03-07T14:39:04.357Z,8.52
2023-03-07T14:41:50.508Z,8.39
2023-03-07T14:44:39.490Z,8.28
2023-03-07T14:47:52.279Z,8.24
2023-03-07T14:50:29.467Z,8.16
2023-03-07T14:53:15.111Z,7.94
2023-03-07T14:55:50.602Z,7.79
2023-03-07T14:58:32.604Z,7.82
2023-03-07T15:01:16.284Z,7.85
2023-03-07T15:03:53.589Z,7.85
2023-03-07T15:06:29.243Z,7.89
2023-03-07T15:09:04.701Z,7.64
2023-03-07T15:11:41.728Z,7.45
2023-03-07T15:14:23.572Z,7.41
2023-03-07T15:17:04.487Z,7.23
2023-03-07T15:20:03.370Z,7.01
2023-03-07T15:22:39.658Z,7.02
2023-03-07T15:25:26.174Z,6.80
2023-03-07T15:28:01.358Z,6.82
2023-03-07T15:30:37.359Z,6.93
2023-03-07T15:33:18.632Z,6.81
2023-03-07T15:36:15.378Z,6.74
2023-03-07T15:38:53.096Z,6.72
2023-03-07T15:41:34.410Z,6.63
2023-03-07T15:44:12.627Z,6.46
2023-03-07T15:46:54.262Z,6.45
2023-03-07T15:49:46.144Z,6.34
2023-03-07T15:55:58.772Z,6.24
2023-03-07T15:58:31.446Z,6.17
2023-03-07T16:01:23.719Z,6.23
2023-03-07T16:04:04.055Z,6.25
2023-03-07T16:06:45.908Z,6.15
2023-03-07T16:09:18.998Z,6.21
2023-03-07T16:11:51.058Z,6.25
2023-03-07T16:14:28.301Z,6.24
2023-03-07T16:17:12.115Z,6.25
2023-03-07T16:19:44.476Z,6.23
2023-03-07T16:22:19.316Z,6.26
2023-03-07T16:24:51.793Z,6.25
2023-03-07T16:27:27.781Z,6.28
2023-03-07T16:30:00.377Z,6.34
2023-03-07T16:32:32.870Z,6.18
2023-03-07T16:35:24.385Z,6.00
2023-03-07T16:37:57.191Z,6.08
2023-03-07T16:40:30.195Z,6.10
2023-03-07T16:43:02.796Z,6.09
2023-03-07T16:45:35.424Z,5.99
2023-03-07T16:48:12.877Z,5.62
2023-03-07T16:50:44.883Z,5.58
2023-03-07T16:53:18.697Z,5.41
2023-03-07T16:55:51.310Z,5.30
2023-03-07T16:58:31.222Z,5.23
2023-03-07T17:01:03.410Z,5.26
2023-03-07T17:03:36.291Z,5.29
2023-03-07T17:06:14.500Z,5.15
2023-03-07T17:08:46.634Z,5.15
2023-03-07T17:11:22.710Z,5.06
2023-03-07T17:13:58.905Z,4.93
2023-03-07T17:16:43.714Z,4.90
2023-03-07T17:19:28.281Z,5.01
2023-03-07T17:22:02.992Z,5.06
2023-03-07T17:24:35.040Z,5.04
2023-03-07T17:27:07.377Z,5.00
2023-03-07T17:29:43.917Z,5.08
2023-03-07T17:32:16.952Z,5.01
2023-03-07T17:34:49.259Z,4.91
2023-03-07T17:37:21.902Z,4.60
2023-03-07T17:39:54.509Z,4.57
2023-03-07T17:42:29.272Z,4.63
2023-03-07T17:45:01.222Z,4.55
2023-03-07T17:47:33.840Z,4.51
2023-03-07T17:50:27.469Z,4.53
2023-03-07T17:52:59.513Z,4.47
2023-03-07T17:55:32.881Z,4.29
2023-03-07T17:58:09.544Z,4.25
2023-03-07T18:00:41.689Z,4.24
2023-03-07T18:03:15.676Z,4.18
2023-03-07T18:06:21.453Z,4.13
2023-03-07T18:08:53.790Z,4.09
2023-03-07T18:11:55.517Z,4.01
2023-03-07T18:14:28.212Z,4.06
2023-03-07T18:17:01.958Z,4.06
2023-03-07T18:19:34.479Z,4.07
2023-03-07T18:22:06.629Z,4.01
2023-03-07T18:24:38.686Z,4.01
2023-03-07T18:27:10.814Z,3.97
2023-03-07T18:29:42.922Z,3.92
2023-03-07T18:32:29.255Z,3.95
2023-03-07T18:35:02.046Z,3.92
2023-03-07T18:37:34.040Z,3.95
2023-03-07T18:43:34.860Z,3.78
2023-03-07T18:46:10.071Z,3.74
2023-03-07T18:48:42.266Z,3.68
2023-03-07T18:51:18.315Z,3.65
2023-03-07T18:53:52.075Z,3.55
2023-03-07T18:56:24.461Z,3.55
2023-03-07T18:59:01.597Z,3.44
2023-03-07T19:01:36.623Z,3.30
2023-03-07T19:04:09.318Z,3.35
2023-03-07T19:06:46.141Z,3.28
2023-03-07T19:09:20.417Z,3.22
2023-03-07T19:11:53.020Z,3.15
2023-03-07T19:14:26.491Z,3.10
2023-03-07T19:16:58.531Z,3.16
2023-03-07T19:19:30.624Z,3.15
2023-03-07T19:22:02.698Z,3.14
2023-03-07T19:24:34.836Z,3.15
2023-03-07T19:27:06.967Z,3.09
2023-03-07T19:29:39.029Z,3.05
2023-03-07T19:32:11.116Z,3.05
2023-03-07T19:34:43.522Z,2.99
2023-03-07T19:37:15.572Z,2.97
2023-03-07T19:39:54.607Z,2.96
2023-03-07T19:42:26.771Z,2.99
2023-03-07T19:45:04.128Z,2.96
2023-03-07T19:47:36.318Z,2.92
2023-03-07T19:50:09.769Z,2.89
2023-03-07T19:52:42.209Z,2.92
2023-03-07T19:55:14.413Z,2.84
2023-03-07T19:57:47.074Z,2.76
2023-03-07T20:00:20.318Z,2.81
2023-03-07T20:02:52.379Z,2.81
2023-03-07T20:05:24.433Z,2.74
2023-03-07T20:07:56.975Z,2.72
2023-03-07T20:10:29.194Z,2.76
2023-03-07T20:13:01.266Z,2.72
2023-03-07T20:15:35.287Z,2.78
2023-03-07T20:18:07.371Z,2.78
2023-03-07T20:20:39.334Z,2.73
2023-03-07T20:23:23.675Z,2.71
2023-03-07T20:26:10.284Z,2.66
2023-03-07T20:28:42.660Z,2.60
2023-03-07T20:31:15.423Z,2.45
2023-03-07T20:33:48.357Z,2.52
2023-03-07T20:36:29.953Z,2.58
2023-03-07T20:39:07.849Z,2.57
2023-03-07T20:41:40.956Z,2.58
2023-03-07T20:44:15.573Z,2.60
2023-03-07T20:46:47.696Z,2.38
2023-03-07T20:49:19.779Z,2.45
2023-03-07T20:51:52.606Z,2.45
2023-03-07T20:54:24.690Z,2.50
2023-03-07T20:56:56.873Z,2.51
2023-03-07T20:59:29.074Z,2.52
2023-03-07T21:02:01.326Z,2.53
2023-03-07T21:04:33.460Z,2.53
2023-03-07T21:07:05.556Z,2.59
2023-03-07T21:09:41.471Z,2.57
2023-03-07T21:12:13.677Z,2.50
2023-03-07T21:14:45.805Z,2.41
2023-03-07T21:17:17.887Z,2.35
2023-03-07T21:19:49.859Z,2.44
2023-03-07T21:22:23.132Z,2.57
2023-03-07T21:24:55.269Z,2.52
2023-03-07T21:27:28.369Z,2.58
2023-03-07T21:30:00.425Z,2.61
2023-03-07T21:32:32.597Z,2.43
2023-03-07T21:35:05.173Z,2.34
2023-03-07T21:37:37.698Z,2.31
2023-03-07T21:40:11.371Z,2.27
2023-03-07T21:42:43.651Z,2.33
2023-03-07T21:45:16.274Z,2.34
2023-03-07T21:47:53.316Z,2.29
2023-03-07T21:50:25.451Z,2.08
2023-03-07T21:52:57.609Z,2.05
2023-03-07T21:55:29.601Z,2.06
2023-03-07T21:58:01.880Z,1.97
2023-03-07T22:00:33.902Z,1.94
2023-03-07T22:03:05.897Z,1.91
2023-03-07T22:05:39.428Z,1.76
2023-03-07T22:08:11.656Z,1.83
2023-03-07T22:10:44.621Z,1.87
2023-03-07T22:13:16.584Z,1.74
2023-03-07T22:15:48.656Z,1.69
2023-03-07T22:18:20.648Z,1.69
2023-03-07T22:20:53.009Z,1.62
2023-03-07T22:23:28.608Z,1.60
2023-03-07T22:26:07.410Z,1.63
2023-03-07T22:28:43.092Z,1.64
2023-03-07T22:31:15.468Z,1.67
2023-03-07T22:33:47.755Z,1.63
2023-03-07T22:36:19.972Z,1.57
2023-03-07T22:38:57.052Z,1.51
2023-03-07T22:41:29.357Z,1.48
2023-03-07T22:44:01.417Z,1.40
2023-03-07T22:46:33.490Z,1.40
2023-03-07T22:49:05.613Z,1.42
2023-03-07T22:51:39.924Z,1.42
2023-03-07T22:54:12.165Z,1.46
2023-03-07T22:56:44.212Z,1.42
2023-03-07T22:59:16.255Z,1.47
2023-03-07T23:01:48.654Z,1.55
2023-03-07T23:04:20.772Z,1.54
2023-03-07T23:06:53.520Z,1.56
2023-03-07T23:09:25.603Z,1.57
2023-03-07T23:11:58.130Z,1.49
2023-03-07T23:14:30.149Z,1.54
2023-03-07T23:17:02.166Z,1.61
2023-03-07T23:19:34.344Z,1.65
2023-03-07T23:22:12.126Z,1.68
2023-03-07T23:24:44.198Z,1.59
2023-03-07T23:27:16.209Z,1.56
2023-03-07T23:29:52.446Z,1.59
2023-03-07T23:32:25.262Z,1.60
2023-03-07T23:34:57.295Z,1.59
2023-03-07T23:37:29.727Z,1.55
2023-03-07T23:40:01.723Z,1.60
2023-03-07T23:42:33.835Z,1.54
2023-03-07T23:45:06.444Z,1.53
2023-03-07T23:47:43.139Z,1.62
2023-03-07T23:50:15.970Z,1.61
2023-03-07T23:52:52.346Z,1.58
2023-03-07T23:55:24.459Z,1.62
2023-03-07T23:57:56.512Z,1.58
